Overview Statistics Trail Chart Weather Telemetry Raw packets
 

This is the latest recevied weather packets stored in our database for station/object DN9EM-3. If no packets are shown the sender has not sent any weather packets the latest 10 day(s).

<< 30 31 32 33 >>
Time Temp. Humidity Pressure Rain* Wind** Luminosity Snow
1788096639 18.89° C 89% 1010.3 hPa 2.29 mm - - -
1788096037 18.89° C 89% 1010.1 hPa 2.29 mm - - -
1788095428 18.89° C 90% 1009.9 hPa 2.29 mm - - -
1788094826 18.33° C 91% 1009.9 hPa 2.29 mm - - -
1788094218 17.78° C 90% 1009.8 hPa 2.29 mm - - -
1788093615 18.89° C 88% 1009.8 hPa 1.78 mm - - -
1788093073 20.56° C 79% 1009.4 hPa 0 mm - - -
1788092464 21.67° C 76% 1008.9 hPa 0 mm - - -
1788091862 21.67° C 76% 1008.7 hPa 0 mm - - -
1788091254 21.67° C 77% 1008.9 hPa 0 mm - - -
1788090656 20.56° C 78% 1008.7 hPa 0 mm - - -
1788090049 20° C 81% 1008.8 hPa 0 mm - - -
1788089440 20.56° C 78% 1008.5 hPa 0 mm - - -
1788088838 21.11° C 77% 1008.5 hPa 0 mm - - -
1788088230 21.11° C 77% 1008.3 hPa 0 mm - - -
1788087627 20° C 79% 1008.2 hPa 0 mm - - -
1788087025 20° C 80% 1008.2 hPa 0 mm - - -
1788086416 20° C 81% 1008.1 hPa 0 mm - - -
1788085874 19.44° C 83% 1008.1 hPa 0 mm - - -
1788085266 18.89° C 85% 1008.1 hPa 0 mm - - -
1788084663 19.44° C 82% 1008 hPa 0 mm - - -
1788084061 19.44° C 82% 1007.8 hPa 0 mm - - -

* Rain latest hour (hover to see other rain measurements)
** Current wind speed in m/s (hover to see current wind gust speed)